createdAt,value
2017-10-28T00:02:28.140Z,101441
2017-10-28T00:04:56.306Z,101439
2017-10-28T00:07:24.468Z,101448
2017-10-28T00:09:52.658Z,101443
2017-10-28T00:12:20.814Z,101435
2017-10-28T00:14:48.979Z,101422
2017-10-28T00:17:17.145Z,101425
2017-10-28T00:19:45.287Z,101428
2017-10-28T00:22:14.232Z,101432
2017-10-28T00:24:42.398Z,101421
2017-10-28T00:27:10.554Z,101424
2017-10-28T00:29:38.701Z,101417
2017-10-28T00:32:12.350Z,101406
2017-10-28T00:34:46.155Z,101402
2017-10-28T00:37:14.327Z,101388
2017-10-28T00:39:42.488Z,101388
2017-10-28T00:42:10.672Z,101369
2017-10-28T00:44:38.916Z,101361
2017-10-28T00:47:07.074Z,101356
2017-10-28T00:49:36.588Z,101352
2017-10-28T00:52:04.772Z,101344
2017-10-28T00:54:32.937Z,101339
2017-10-28T00:57:01.069Z,101343
2017-10-28T00:59:29.239Z,101340
2017-10-28T01:01:57.387Z,101346
2017-10-28T01:04:25.564Z,101349
2017-10-28T01:06:53.722Z,101338
2017-10-28T01:09:21.883Z,101331
2017-10-28T01:11:50.490Z,101331
2017-10-28T01:14:18.680Z,101317
2017-10-28T01:16:46.840Z,101311
2017-10-28T01:19:15.018Z,101319
2017-10-28T01:21:43.162Z,101297
2017-10-28T01:24:11.332Z,101297
2017-10-28T01:26:39.503Z,101293
2017-10-28T01:29:07.679Z,101294
2017-10-28T01:31:36.571Z,101283
2017-10-28T01:34:04.751Z,101277
2017-10-28T01:36:32.916Z,101278
2017-10-28T01:39:01.053Z,101276
2017-10-28T01:41:29.997Z,101258
2017-10-28T01:43:58.154Z,101270
2017-10-28T01:46:26.327Z,101261
2017-10-28T01:48:54.506Z,101262
2017-10-28T01:51:22.668Z,101257
2017-10-28T01:53:50.830Z,101253
2017-10-28T01:56:18.990Z,101270
2017-10-28T01:58:47.143Z,101239
2017-10-28T02:01:16.910Z,101250
2017-10-28T02:03:45.071Z,101251
2017-10-28T02:06:13.238Z,101236
2017-10-28T02:08:41.383Z,101248
2017-10-28T02:11:10.313Z,101241
2017-10-28T02:13:38.503Z,101229
2017-10-28T02:16:06.670Z,101238
2017-10-28T02:18:34.856Z,101227
2017-10-28T02:21:03.008Z,101214
2017-10-28T02:23:31.189Z,101214
2017-10-28T02:25:59.740Z,101206
2017-10-28T02:28:27.916Z,101206
2017-10-28T02:30:56.764Z,101210
2017-10-28T02:33:25.688Z,101193
2017-10-28T02:35:53.850Z,101192
2017-10-28T02:38:22.020Z,101194
2017-10-28T02:40:50.240Z,101172
2017-10-28T02:43:19.220Z,101185
2017-10-28T02:45:47.376Z,101164
2017-10-28T02:48:15.570Z,101164
2017-10-28T02:50:43.733Z,101160
2017-10-28T02:53:12.315Z,101156
2017-10-28T02:55:41.220Z,101148
2017-10-28T02:58:09.372Z,101154
2017-10-28T03:00:37.552Z,101143
2017-10-28T03:03:05.707Z,101137
2017-10-28T03:05:33.884Z,101141
2017-10-28T03:08:02.036Z,101130
2017-10-28T03:10:31.063Z,101121
2017-10-28T03:12:59.212Z,101138
2017-10-28T03:15:27.374Z,101135
2017-10-28T03:17:56.313Z,101132
2017-10-28T03:20:24.490Z,101122
2017-10-28T03:22:53.452Z,101119
2017-10-28T03:25:21.611Z,101108
2017-10-28T03:27:49.771Z,101104
2017-10-28T03:30:18.727Z,101128
2017-10-28T03:32:47.359Z,101107
2017-10-28T03:35:15.512Z,101105
2017-10-28T03:37:44.445Z,101107
2017-10-28T03:40:12.587Z,101110
2017-10-28T03:42:40.746Z,101096
2017-10-28T03:45:09.832Z,101094
2017-10-28T03:47:38.000Z,101096
2017-10-28T03:50:06.237Z,101094
2017-10-28T03:52:34.391Z,101094
2017-10-28T03:55:02.535Z,101086
2017-10-28T03:57:31.451Z,101074
2017-10-28T03:59:59.597Z,101084
2017-10-28T04:02:28.887Z,101089
2017-10-28T04:04:58.670Z,101085
2017-10-28T04:07:27.648Z,101078
2017-10-28T04:09:55.803Z,101085
2017-10-28T04:12:23.977Z,101065
2017-10-28T04:14:52.138Z,101066
2017-10-28T04:17:20.547Z,101065
2017-10-28T04:19:48.699Z,101061
2017-10-28T04:22:16.843Z,101057
2017-10-28T04:24:45.773Z,101057
2017-10-28T04:27:13.937Z,101043
2017-10-28T04:29:42.134Z,101045
2017-10-28T04:32:10.283Z,101046
2017-10-28T04:34:38.439Z,101039
2017-10-28T04:37:06.579Z,101027
2017-10-28T04:39:34.741Z,101023
2017-10-28T04:42:02.891Z,101010
2017-10-28T04:44:31.080Z,101003
2017-10-28T04:46:59.230Z,101004
2017-10-28T04:49:28.316Z,100998
2017-10-28T04:51:56.464Z,100996
2017-10-28T04:54:24.606Z,100972
2017-10-28T04:56:52.764Z,100981
2017-10-28T04:59:20.911Z,100968
2017-10-28T05:01:49.638Z,100961
2017-10-28T05:04:17.781Z,100960
2017-10-28T05:06:45.947Z,100959
2017-10-28T05:09:14.101Z,100955
2017-10-28T05:11:42.879Z,100955
2017-10-28T05:14:11.028Z,100946
2017-10-28T05:16:39.950Z,100942
2017-10-28T05:19:08.847Z,100927
2017-10-28T05:21:37.012Z,100920
2017-10-28T05:24:05.200Z,100917
2017-10-28T05:26:33.364Z,100888
2017-10-28T05:29:02.052Z,100894
2017-10-28T05:31:30.239Z,100898
2017-10-28T05:33:58.393Z,100898
2017-10-28T05:36:27.204Z,100890
2017-10-28T05:38:55.397Z,100881
2017-10-28T05:41:23.671Z,100893
2017-10-28T05:43:51.915Z,100892
2017-10-28T05:46:20.085Z,100904
2017-10-28T05:48:48.259Z,100895
2017-10-28T05:51:16.418Z,100882
2017-10-28T05:53:44.593Z,100877
2017-10-28T05:56:12.743Z,100870
2017-10-28T05:58:41.666Z,100867
2017-10-28T06:01:09.831Z,100871
2017-10-28T06:03:38.003Z,100866
2017-10-28T06:06:06.398Z,100852
2017-10-28T06:08:34.572Z,100847
2017-10-28T06:11:03.158Z,100847
2017-10-28T06:13:31.913Z,100877
2017-10-28T06:16:00.483Z,100853
2017-10-28T06:18:28.657Z,100838
2017-10-28T06:20:56.855Z,100852
2017-10-28T06:23:25.007Z,100844
2017-10-28T06:25:53.181Z,100855
2017-10-28T06:28:21.331Z,100862
2017-10-28T06:30:50.287Z,100853
2017-10-28T06:33:18.445Z,100866
2017-10-28T06:35:46.621Z,100851
2017-10-28T06:38:14.794Z,100849
2017-10-28T06:40:43.277Z,100848
2017-10-28T06:43:11.427Z,100851
2017-10-28T06:45:39.609Z,100862
2017-10-28T06:48:07.760Z,100829
2017-10-28T06:50:35.935Z,100825
2017-10-28T06:53:04.088Z,100811
2017-10-28T06:55:33.080Z,100784
2017-10-28T06:58:01.527Z,100786
2017-10-28T07:00:29.672Z,100805
2017-10-28T07:02:57.847Z,100794
2017-10-28T07:05:26.477Z,100799
2017-10-28T07:07:54.652Z,100795
2017-10-28T07:10:23.632Z,100778
2017-10-28T07:12:51.819Z,100782
2017-10-28T07:15:20.764Z,100786
2017-10-28T07:17:48.943Z,100780
2017-10-28T07:20:17.096Z,100783
2017-10-28T07:22:45.254Z,100777
2017-10-28T07:25:13.459Z,100773
2017-10-28T07:27:41.636Z,100777
2017-10-28T07:30:09.795Z,100779
2017-10-28T07:32:38.048Z,100758
2017-10-28T07:35:06.222Z,100764
2017-10-28T07:37:35.177Z,100784
2017-10-28T07:40:03.419Z,100759
2017-10-28T07:42:31.940Z,100754
2017-10-28T07:45:00.880Z,100772
2017-10-28T07:47:29.031Z,100742
2017-10-28T07:49:57.226Z,100751
2017-10-28T07:52:25.395Z,100734
2017-10-28T07:54:53.574Z,100738
2017-10-28T07:57:21.755Z,100736
2017-10-28T07:59:49.942Z,100716
2017-10-28T08:02:18.201Z,100693
2017-10-28T08:04:46.388Z,100728
2017-10-28T08:07:14.550Z,100715
2017-10-28T08:09:42.733Z,100695
2017-10-28T08:12:11.393Z,100691
2017-10-28T08:14:40.244Z,100689
2017-10-28T08:17:09.180Z,100706
2017-10-28T08:19:37.336Z,100674
2017-10-28T08:22:05.499Z,100683
2017-10-28T08:24:33.656Z,100700
2017-10-28T08:27:03.389Z,100709
2017-10-28T08:29:31.539Z,100700
2017-10-28T08:32:01.016Z,100683
2017-10-28T08:34:29.178Z,100680
2017-10-28T08:36:57.358Z,100663
2017-10-28T08:39:25.815Z,100645
2017-10-28T08:41:54.005Z,100657
2017-10-28T08:44:22.163Z,100646
2017-10-28T08:46:50.336Z,100654
2017-10-28T08:49:18.615Z,100653
2017-10-28T08:51:46.796Z,100638
2017-10-28T08:54:15.059Z,100643
2017-10-28T08:56:43.248Z,100629
2017-10-28T08:59:11.400Z,100629
2017-10-28T09:01:39.579Z,100632
2017-10-28T09:04:08.682Z,100644
2017-10-28T09:06:36.957Z,100621
2017-10-28T09:09:05.116Z,100620
2017-10-28T09:11:33.316Z,100598
2017-10-28T09:14:01.495Z,100596
2017-10-28T09:16:29.635Z,100577
2017-10-28T09:18:57.800Z,100574
2017-10-28T09:21:25.959Z,100568
2017-10-28T09:23:54.526Z,100570
2017-10-28T09:26:22.675Z,100549
2017-10-28T09:28:50.899Z,100560
2017-10-28T09:31:19.070Z,100563
2017-10-28T09:33:47.239Z,100582
2017-10-28T09:36:15.438Z,100558
2017-10-28T09:38:43.616Z,100562
2017-10-28T09:41:12.804Z,100559
2017-10-28T09:43:40.992Z,100547
2017-10-28T09:46:09.152Z,100552
2017-10-28T09:48:37.308Z,100543
2017-10-28T09:51:05.479Z,100526
2017-10-28T09:53:33.636Z,100540
2017-10-28T09:56:01.816Z,100513
2017-10-28T09:58:29.973Z,100494
2017-10-28T10:00:58.144Z,100502
2017-10-28T10:03:26.300Z,100488
2017-10-28T10:05:55.231Z,100511
2017-10-28T10:08:23.381Z,100514
2017-10-28T10:10:51.561Z,100509
2017-10-28T10:13:20.756Z,100508
2017-10-28T10:15:48.929Z,100505
2017-10-28T10:18:17.084Z,100497
2017-10-28T10:20:45.324Z,100497
2017-10-28T10:23:14.202Z,100508
2017-10-28T10:25:42.375Z,100481
2017-10-28T10:28:10.543Z,100501
2017-10-28T10:30:38.706Z,100463
2017-10-28T10:33:06.878Z,100471
2017-10-28T10:35:35.358Z,100473
2017-10-28T10:38:03.641Z,100480
2017-10-28T10:40:31.791Z,100462
2017-10-28T10:42:59.959Z,100457
2017-10-28T10:45:28.107Z,100451
2017-10-28T10:47:57.051Z,100445
2017-10-28T10:50:25.204Z,100434
2017-10-28T10:52:53.380Z,100436
2017-10-28T10:55:21.575Z,100420
2017-10-28T10:57:49.748Z,100409
2017-10-28T11:00:17.920Z,100419
2017-10-28T11:02:46.095Z,100414
2017-10-28T11:05:14.245Z,100403
2017-10-28T11:07:42.419Z,100390
2017-10-28T11:10:10.579Z,100390
2017-10-28T11:12:38.755Z,100387
2017-10-28T11:15:06.902Z,100389
2017-10-28T11:17:36.456Z,100375
2017-10-28T11:20:04.607Z,100383
2017-10-28T11:22:32.769Z,100377
2017-10-28T11:25:00.948Z,100369
2017-10-28T11:27:29.732Z,100367
2017-10-28T11:29:57.904Z,100354
2017-10-28T11:32:26.105Z,100369
2017-10-28T11:34:54.283Z,100341
2017-10-28T11:37:23.036Z,100354
2017-10-28T11:39:51.215Z,100357
2017-10-28T11:42:19.383Z,100357
2017-10-28T11:44:47.576Z,100361
2017-10-28T11:47:15.744Z,100358
2017-10-28T11:49:44.137Z,100343
2017-10-28T11:52:12.309Z,100320
2017-10-28T11:54:40.513Z,100335
2017-10-28T11:57:08.670Z,100330
2017-10-28T11:59:36.855Z,100330
2017-10-28T12:02:05.103Z,100317
2017-10-28T12:04:34.529Z,100307
2017-10-28T12:07:02.727Z,100307
2017-10-28T12:09:31.644Z,100304
2017-10-28T12:11:59.828Z,100282
2017-10-28T12:14:28.012Z,100274
2017-10-28T12:16:56.298Z,100268
2017-10-28T12:19:24.448Z,100268
2017-10-28T12:21:52.621Z,100267
2017-10-28T12:24:20.766Z,100280
2017-10-28T12:26:48.951Z,100267
2017-10-28T12:29:17.114Z,100260
2017-10-28T12:31:45.576Z,100256
2017-10-28T12:34:14.520Z,100239
2017-10-28T12:36:42.788Z,100212
2017-10-28T12:39:10.965Z,100230
2017-10-28T12:41:39.111Z,100227
2017-10-28T12:44:07.937Z,100210
2017-10-28T12:46:36.108Z,100217
2017-10-28T12:49:04.297Z,100215
2017-10-28T12:51:32.447Z,100212
2017-10-28T12:54:00.629Z,100210
2017-10-28T12:56:28.775Z,100241
2017-10-28T12:58:56.952Z,100209
2017-10-28T13:01:25.108Z,100201
2017-10-28T13:03:53.283Z,100197
2017-10-28T13:06:21.545Z,100186
2017-10-28T13:08:50.496Z,100201
2017-10-28T13:11:18.655Z,100188
2017-10-28T13:13:46.836Z,100188
2017-10-28T13:16:14.987Z,100174
2017-10-28T13:18:43.160Z,100183
2017-10-28T13:21:11.334Z,100174
2017-10-28T13:23:39.511Z,100190
2017-10-28T13:26:08.521Z,100169
2017-10-28T13:28:36.787Z,100172
2017-10-28T13:31:04.951Z,100161
2017-10-28T13:33:33.103Z,100173
2017-10-28T13:36:01.291Z,100160
2017-10-28T13:38:29.573Z,100147
2017-10-28T13:40:57.744Z,100139
2017-10-28T13:43:25.895Z,100147
2017-10-28T13:45:54.099Z,100144
2017-10-28T13:48:22.261Z,100145
2017-10-28T13:50:50.447Z,100149
2017-10-28T13:53:19.851Z,100126
2017-10-28T13:55:48.028Z,100135
2017-10-28T13:58:16.192Z,100153
2017-10-28T14:00:44.363Z,100133
2017-10-28T14:03:12.535Z,100125
2017-10-28T14:05:41.060Z,100088
2017-10-28T14:08:09.240Z,100097
2017-10-28T14:10:38.185Z,100100
2017-10-28T14:13:06.359Z,100094
2017-10-28T14:15:34.528Z,100090
2017-10-28T14:18:02.709Z,100095
2017-10-28T14:20:30.871Z,100094
2017-10-28T14:23:00.579Z,100090
2017-10-28T14:25:28.759Z,100073
2017-10-28T14:27:57.025Z,100081
2017-10-28T14:30:25.734Z,100063
2017-10-28T14:32:53.906Z,100066
2017-10-28T14:35:22.059Z,100074
2017-10-28T14:37:50.331Z,100074
2017-10-28T14:40:18.483Z,100060
2017-10-28T14:42:46.937Z,100062
2017-10-28T14:45:15.886Z,100059
2017-10-28T14:47:44.031Z,100070
2017-10-28T14:50:12.208Z,100056
2017-10-28T14:52:40.361Z,100061
2017-10-28T14:55:08.527Z,100050
2017-10-28T14:57:36.676Z,100052
2017-10-28T15:00:06.242Z,100053
2017-10-28T15:02:35.133Z,100063
2017-10-28T15:05:03.303Z,100050
2017-10-28T15:07:31.503Z,100046
2017-10-28T15:09:59.679Z,100042
2017-10-28T15:12:27.823Z,100036
2017-10-28T15:14:56.004Z,100024
2017-10-28T15:17:24.163Z,100028
2017-10-28T15:19:52.328Z,100036
2017-10-28T15:22:21.095Z,100034
2017-10-28T15:24:49.245Z,100033
2017-10-28T15:27:17.411Z,100034
2017-10-28T15:29:45.654Z,100032
2017-10-28T15:32:13.823Z,100037
2017-10-28T15:34:41.985Z,100022
2017-10-28T15:37:10.160Z,100034
2017-10-28T15:39:38.906Z,100040
2017-10-28T15:42:08.382Z,100024
2017-10-28T15:44:36.537Z,100029
2017-10-28T15:47:04.715Z,100019
2017-10-28T15:49:32.880Z,100020
2017-10-28T15:52:01.066Z,100022
2017-10-28T15:54:29.210Z,100010
2017-10-28T15:56:57.430Z,100008
2017-10-28T15:59:25.671Z,99987
2017-10-28T16:01:53.829Z,100031
2017-10-28T16:04:22.016Z,99990
2017-10-28T16:06:50.571Z,99984
2017-10-28T16:09:18.735Z,99982
2017-10-28T16:11:46.886Z,99991
2017-10-28T16:14:15.835Z,99995
2017-10-28T16:16:44.008Z,99987
2017-10-28T16:19:12.168Z,99987
2017-10-28T16:21:41.397Z,99991
2017-10-28T16:24:09.559Z,100038
2017-10-28T16:26:37.719Z,99990
2017-10-28T16:29:05.896Z,99990
2017-10-28T16:31:34.064Z,99993
2017-10-28T16:34:02.227Z,99977
2017-10-28T16:36:30.388Z,99981
2017-10-28T16:38:58.547Z,99967
2017-10-28T16:41:26.724Z,99972
2017-10-28T16:43:54.881Z,99969
2017-10-28T16:46:23.918Z,99968
2017-10-28T16:48:52.079Z,99976
2017-10-28T16:51:20.243Z,99955
2017-10-28T16:53:48.383Z,99962
2017-10-28T16:56:17.318Z,99934
2017-10-28T16:58:45.737Z,99945
2017-10-28T17:01:13.904Z,99946
2017-10-28T17:03:42.056Z,99933
2017-10-28T17:06:10.219Z,99911
2017-10-28T17:08:38.365Z,99928
2017-10-28T17:11:06.537Z,99938
2017-10-28T17:13:34.691Z,99935
2017-10-28T17:16:03.629Z,99922
2017-10-28T17:18:31.778Z,99930
2017-10-28T17:20:59.928Z,99921
2017-10-28T17:23:28.887Z,99918
2017-10-28T17:25:57.033Z,99928
2017-10-28T17:28:25.299Z,99931
2017-10-28T17:30:53.448Z,99926
2017-10-28T17:33:22.387Z,99898
2017-10-28T17:35:50.544Z,99900
2017-10-28T17:38:18.928Z,99897
2017-10-28T17:40:47.081Z,99891
2017-10-28T17:43:15.259Z,99887
2017-10-28T17:45:43.419Z,99919
2017-10-28T17:48:11.591Z,99908
2017-10-28T17:50:39.744Z,99888
2017-10-28T17:53:08.694Z,99885
2017-10-28T17:55:36.856Z,99882
2017-10-28T17:58:05.033Z,99893
2017-10-28T18:00:33.223Z,99876
2017-10-28T18:03:01.380Z,99889
2017-10-28T18:05:29.541Z,99863
2017-10-28T18:07:58.752Z,99875
2017-10-28T18:10:27.000Z,99851
2017-10-28T18:12:55.151Z,99848
2017-10-28T18:15:24.081Z,99832
2017-10-28T18:17:52.231Z,99853
2017-10-28T18:20:20.392Z,99833
2017-10-28T18:22:48.554Z,99824
2017-10-28T18:25:18.204Z,99833
2017-10-28T18:27:46.356Z,99804
2017-10-28T18:30:15.343Z,99807
2017-10-28T18:32:43.550Z,99820
2017-10-28T18:35:11.720Z,99826
2017-10-28T18:37:40.124Z,99841
2017-10-28T18:40:08.280Z,99839
2017-10-28T18:42:36.451Z,99806
2017-10-28T18:45:05.285Z,99810
2017-10-28T18:47:34.228Z,99798
2017-10-28T18:50:02.379Z,99789
2017-10-28T18:52:30.738Z,99791
2017-10-28T18:54:58.888Z,99762
2017-10-28T18:57:28.584Z,99771
2017-10-28T18:59:57.547Z,99777
2017-10-28T19:02:25.738Z,99769
2017-10-28T19:04:53.887Z,99749
2017-10-28T19:07:22.166Z,99743
2017-10-28T19:09:50.428Z,99727
2017-10-28T19:12:19.378Z,99733
2017-10-28T19:14:48.315Z,99733
2017-10-28T19:17:16.467Z,99722
2017-10-28T19:19:45.184Z,99700
2017-10-28T19:22:13.345Z,99695
2017-10-28T19:24:41.640Z,99692
2017-10-28T19:27:09.779Z,99688
2017-10-28T19:29:37.964Z,99676
2017-10-28T19:32:06.132Z,99692
2017-10-28T19:34:34.303Z,99677
2017-10-28T19:37:02.471Z,99661
2017-10-28T19:39:30.632Z,99670
2017-10-28T19:41:58.779Z,99678
2017-10-28T19:44:28.168Z,99642
2017-10-28T19:46:56.327Z,99679
2017-10-28T19:49:24.500Z,99645
2017-10-28T19:51:52.648Z,99648
2017-10-28T19:54:20.824Z,99648
2017-10-28T19:56:48.975Z,99644
2017-10-28T19:59:17.131Z,99627
2017-10-28T20:01:46.042Z,99624
2017-10-28T20:04:14.214Z,99609
2017-10-28T20:06:42.363Z,99635
2017-10-28T20:09:11.307Z,99605
2017-10-28T20:11:39.454Z,99611
2017-10-28T20:14:07.607Z,99596
2017-10-28T20:16:35.783Z,99581
2017-10-28T20:19:03.935Z,99566
2017-10-28T20:21:32.871Z,99564
2017-10-28T20:24:01.025Z,99556
2017-10-28T20:26:29.189Z,99563
2017-10-28T20:28:57.639Z,99552
2017-10-28T20:31:25.796Z,99532
2017-10-28T20:33:54.056Z,99533
2017-10-28T20:36:22.236Z,99528
2017-10-28T20:38:50.387Z,99528
2017-10-28T20:41:18.564Z,99526
2017-10-28T20:43:47.268Z,99516
2017-10-28T20:46:15.456Z,99501
2017-10-28T20:48:43.600Z,99486
2017-10-28T20:51:11.747Z,99475
2017-10-28T20:53:39.962Z,99464
2017-10-28T20:56:08.107Z,99464
2017-10-28T20:58:36.294Z,99468
2017-10-28T21:01:04.449Z,99450
2017-10-28T21:03:32.620Z,99441
2017-10-28T21:06:00.760Z,99433
2017-10-28T21:08:29.688Z,99436
2017-10-28T21:10:57.850Z,99422
2017-10-28T21:13:26.033Z,99440
2017-10-28T21:15:54.194Z,99402
2017-10-28T21:18:22.391Z,99391
2017-10-28T21:20:50.541Z,99377
2017-10-28T21:23:18.734Z,99367
2017-10-28T21:25:46.895Z,99357
2017-10-28T21:28:15.048Z,99347
2017-10-28T21:30:43.221Z,99340
2017-10-28T21:33:11.371Z,99334
2017-10-28T21:35:40.319Z,99315
2017-10-28T21:38:08.497Z,99298
2017-10-28T21:40:36.679Z,99295
2017-10-28T21:43:04.852Z,99287
2017-10-28T21:45:33.026Z,99276
2017-10-28T21:48:01.200Z,99269
2017-10-28T21:50:29.367Z,99289
2017-10-28T21:52:57.535Z,99267
2017-10-28T21:55:25.764Z,99249
2017-10-28T21:57:54.524Z,99236
2017-10-28T22:00:22.708Z,99239
2017-10-28T22:02:51.650Z,99222
2017-10-28T22:05:20.244Z,99216
2017-10-28T22:07:48.423Z,99202
2017-10-28T22:10:16.695Z,99196
2017-10-28T22:12:44.972Z,99191
2017-10-28T22:15:13.134Z,99185
2017-10-28T22:17:41.308Z,99189
2017-10-28T22:20:09.468Z,99170
2017-10-28T22:22:37.637Z,99150
2017-10-28T22:25:05.843Z,99150
2017-10-28T22:27:34.061Z,99135
2017-10-28T22:30:02.239Z,99131
2017-10-28T22:32:30.448Z,99118
2017-10-28T22:34:58.622Z,99099
2017-10-28T22:37:26.809Z,99096
2017-10-28T22:39:54.961Z,99086
2017-10-28T22:42:23.158Z,99086
2017-10-28T22:44:51.317Z,99077
2017-10-28T22:47:19.491Z,99061
2017-10-28T22:49:47.676Z,99043
2017-10-28T22:52:15.840Z,99040
2017-10-28T22:54:44.024Z,99029
2017-10-28T22:57:12.196Z,99023
2017-10-28T22:59:40.369Z,99057
2017-10-28T23:02:08.551Z,99002
2017-10-28T23:04:36.729Z,98977
2017-10-28T23:07:04.892Z,98969
2017-10-28T23:09:33.170Z,98965
2017-10-28T23:12:01.346Z,98973
2017-10-28T23:14:29.561Z,98937
2017-10-28T23:16:57.757Z,98924
2017-10-28T23:19:25.959Z,98901
2017-10-28T23:21:54.242Z,98915
2017-10-28T23:24:23.058Z,98903
2017-10-28T23:26:51.381Z,98893
2017-10-28T23:29:19.529Z,98886
2017-10-28T23:31:47.698Z,98898
2017-10-28T23:34:15.897Z,98871
2017-10-28T23:36:44.103Z,98866
2017-10-28T23:39:12.279Z,98861
2017-10-28T23:41:41.220Z,98867
2017-10-28T23:44:09.380Z,98854
2017-10-28T23:46:37.569Z,98847
2017-10-28T23:49:05.774Z,98794
2017-10-28T23:51:33.941Z,98815
2017-10-28T23:54:02.140Z,98763
2017-10-28T23:56:31.105Z,98760
